Time;durP1;ratioP1;P1;durP2;ratioP2;P2;SDS_P1;SDS_P2;PMS_P1;PMS_P2;Temp;Humidity;BMP_temperature;BMP_pressure;BME280_temperature;BME280_humidity;BME280_pressure;Samples;Min_cycle;Max_cycle;Signal;HPM_P1;HPM_P2
2023/02/11 00:02:04;;;;;;;;;;;;;;;19.40;26.54;102826.23;105136;1299;61442;-81
2023/02/11 00:04:32;;;;;;;;;;;;;;;19.39;26.60;102826.96;105143;1292;61486;-81
2023/02/11 00:06:58;;;;;;;;;;;;;;;19.40;26.62;102830.16;105150;1291;61134;-81
2023/02/11 00:09:24;;;;;;;;;;;;;;;19.40;26.45;102830.17;105154;1293;61296;-81
2023/02/11 00:11:50;;;;;;;;;;;;;;;19.40;26.47;102834.09;105121;1291;60110;-81
2023/02/11 00:14:15;;;;;;;;;;;;;;;19.41;26.52;102833.71;105124;1291;61336;-81
2023/02/11 00:16:41;;;;;;;;;;;;;;;19.40;26.51;102831.05;105253;1292;61286;-81
2023/02/11 00:19:06;;;;;;;;;;;;;;;19.40;26.44;102831.76;105132;1291;61437;-81
2023/02/11 00:21:32;;;;;;;;;;;;;;;19.40;26.50;102828.55;105210;1294;72468;-81
2023/02/11 00:24:00;;;;;;;;;;;;;;;19.41;26.62;102828.19;105160;1292;61199;-81
2023/02/11 00:26:27;;;;;;;;;;;;;;;19.40;26.56;102828.38;105147;1291;61289;-81
2023/02/11 00:28:53;;;;;;;;;;;;;;;19.40;26.67;102828.73;105208;1286;61189;-81
2023/02/11 00:31:19;;;;;;;;;;;;;;;19.40;26.64;102826.60;105889;1286;61265;-81
2023/02/11 00:33:45;;;;;;;;;;;;;;;19.40;26.63;102824.63;105870;1286;61269;-81
2023/02/11 00:36:15;;;;;;;;;;;;;;;19.40;26.55;102824.45;105929;1285;61288;-81
2023/02/11 00:38:44;;;;;;;;;;;;;;;19.40;26.55;102826.95;105887;1286;61659;-81
2023/02/11 00:41:10;;;;;;;;;;;;;;;19.40;26.73;102825.70;105858;1286;72151;-81
2023/02/11 00:43:37;;;;;;;;;;;;;;;19.40;26.50;102823.02;105873;1286;61279;-81
2023/02/11 00:46:02;;;;;;;;;;;;;;;19.40;26.62;102818.02;105851;1286;61342;-81
2023/02/11 00:48:28;;;;;;;;;;;;;;;19.40;26.64;102819.64;105953;1286;61754;-81
2023/02/11 00:50:54;;;;;;;;;;;;;;;19.41;26.57;102825.52;105856;1286;61355;-81
2023/02/11 00:53:19;;;;;;;;;;;;;;;19.40;26.55;102822.48;105846;1286;61381;-81
2023/02/11 00:55:45;;;;;;;;;;;;;;;19.40;26.65;102823.01;105894;1286;61297;-81
2023/02/11 00:58:10;;;;;;;;;;;;;;;19.40;26.54;102820.90;105883;1286;61148;-81
2023/02/11 01:00:36;;;;;;;;;;;;;;;19.40;26.58;102818.73;105865;1286;61234;-81
2023/02/11 01:03:01;;;;;;;;;;;;;;;19.40;26.46;102817.30;105828;1286;61291;-81
2023/02/11 01:05:27;;;;;;;;;;;;;;;19.40;26.51;102820.70;105917;1286;61276;-81
2023/02/11 01:07:53;;;;;;;;;;;;;;;19.40;26.51;102816.59;105878;1286;61336;-81
2023/02/11 01:10:20;;;;;;;;;;;;;;;19.40;26.51;102818.56;105879;1286;61272;-81
2023/02/11 01:12:46;;;;;;;;;;;;;;;19.40;26.45;102815.70;105919;1285;61200;-81
2023/02/11 01:15:13;;;;;;;;;;;;;;;19.40;26.58;102816.05;105713;1291;61283;-81
2023/02/11 01:17:38;;;;;;;;;;;;;;;19.40;26.41;102820.70;105834;1285;61512;-81
2023/02/11 01:20:04;;;;;;;;;;;;;;;19.40;26.62;102820.52;105881;1286;61281;-81
2023/02/11 01:22:30;;;;;;;;;;;;;;;19.40;26.47;102813.02;105870;1286;61346;-81
2023/02/11 01:24:56;;;;;;;;;;;;;;;19.40;26.38;102807.31;105865;1286;61336;-81
2023/02/11 01:27:21;;;;;;;;;;;;;;;19.40;26.62;102809.45;105903;1289;61227;-81
2023/02/11 01:29:47;;;;;;;;;;;;;;;19.40;26.53;102808.73;105719;1286;75382;-81
2023/02/11 01:32:12;;;;;;;;;;;;;;;19.40;26.47;102806.77;105885;1286;61274;-81
2023/02/11 01:34:38;;;;;;;;;;;;;;;19.40;26.55;102812.31;105852;1286;61278;-81
2023/02/11 01:37:03;;;;;;;;;;;;;;;19.40;26.46;102809.80;105956;1285;61288;-81
2023/02/11 01:39:31;;;;;;;;;;;;;;;19.40;26.60;102806.05;105976;1284;61292;-81
2023/02/11 01:41:57;;;;;;;;;;;;;;;19.40;26.46;102809.62;105688;1285;75654;-81
2023/02/11 01:44:33;;;;;;;;;;;;;;;19.40;26.42;102807.48;105908;1286;61340;-81
2023/02/11 01:46:58;;;;;;;;;;;;;;;19.41;26.45;102804.98;105942;1285;61145;-81
2023/02/11 01:49:29;;;;;;;;;;;;;;;19.41;26.49;102804.63;105891;1286;61327;-81
2023/02/11 01:51:59;;;;;;;;;;;;;;;19.40;26.54;102802.66;105939;1285;74199;-81
2023/02/11 01:57:23;;;;;;;;;;;;;;;19.40;26.53;102804.45;105899;1286;61160;-81
2023/02/11 01:59:49;;;;;;;;;;;;;;;19.40;26.50;102801.95;105878;1284;72768;-81
2023/02/11 02:02:16;;;;;;;;;;;;;;;19.40;26.44;102806.41;105964;1284;61362;-81
2023/02/11 02:04:52;;;;;;;;;;;;;;;19.40;26.55;102801.77;105918;1286;61416;-81
2023/02/11 02:07:27;;;;;;;;;;;;;;;19.40;26.43;102798.73;105943;1286;61262;-81
2023/02/11 02:09:54;;;;;;;;;;;;;;;19.41;26.43;102803.01;105943;1285;72516;-81
2023/02/11 02:12:20;;;;;;;;;;;;;;;19.40;26.44;102801.95;105939;1285;74309;-81
2023/02/11 02:14:46;;;;;;;;;;;;;;;19.41;26.42;102800.87;105895;1286;61298;-81
2023/02/11 02:17:21;;;;;;;;;;;;;;;19.40;26.33;102796.05;105919;1286;61263;-81
2023/02/11 02:19:57;;;;;;;;;;;;;;;19.40;26.41;102798.19;105864;1286;73488;-81
2023/02/11 02:22:32;;;;;;;;;;;;;;;19.41;26.40;102797.65;105863;1285;75401;-81
2023/02/11 02:24:59;;;;;;;;;;;;;;;19.40;26.35;102792.84;105947;1285;61116;-81
2023/02/11 02:27:29;;;;;;;;;;;;;;;19.40;26.39;102793.73;105971;1286;61052;-81
2023/02/11 02:30:02;;;;;;;;;;;;;;;19.41;26.39;102800.87;105874;1285;72346;-82
2023/02/11 02:32:40;;;;;;;;;;;;;;;19.41;26.39;102803.19;105860;1285;74211;-82
2023/02/11 02:35:15;;;;;;;;;;;;;;;19.40;26.48;102800.16;105935;1286;61227;-81
2023/02/11 02:37:50;;;;;;;;;;;;;;;19.40;26.44;102796.41;105944;1286;60027;-81
2023/02/11 02:40:18;;;;;;;;;;;;;;;19.40;26.36;102796.05;105940;1286;73510;-81
2023/02/11 02:42:44;;;;;;;;;;;;;;;19.41;26.38;102796.92;105529;1285;75293;-81
2023/02/11 02:45:10;;;;;;;;;;;;;;;19.40;26.42;102794.27;105939;1285;61382;-81
2023/02/11 02:47:59;;;;;;;;;;;;;;;19.40;26.40;102796.59;105885;1286;61272;-81
2023/02/11 02:50:29;;;;;;;;;;;;;;;19.41;26.57;102793.90;105218;1291;73565;-82
2023/02/11 02:52:57;;;;;;;;;;;;;;;19.40;26.44;102788.37;105121;1292;75569;-82
2023/02/11 02:55:32;;;;;;;;;;;;;;;19.40;26.36;102784.27;105263;1291;61238;-82
2023/02/11 02:58:00;;;;;;;;;;;;;;;19.40;26.39;102786.41;105133;1291;61269;-82
2023/02/11 03:00:26;;;;;;;;;;;;;;;19.40;26.42;102786.94;105247;1291;73719;-82
2023/02/11 03:03:11;;;;;;;;;;;;;;;19.40;26.42;102783.91;105152;1291;61251;-82
2023/02/11 03:05:44;;;;;;;;;;;;;;;19.40;26.34;102783.20;105237;1291;61243;-82
2023/02/11 03:08:33;;;;;;;;;;;;;;;19.40;26.34;102784.98;105118;1291;61456;-82
2023/02/11 03:10:58;;;;;;;;;;;;;;;19.40;26.36;102784.98;105190;1292;73571;-82
2023/02/11 03:13:25;;;;;;;;;;;;;;;19.40;26.39;102787.66;105090;1291;61296;-82
2023/02/11 03:15:52;;;;;;;;;;;;;;;19.40;26.30;102787.13;105248;1291;61269;-82
2023/02/11 03:18:18;;;;;;;;;;;;;;;19.41;26.37;102787.28;105169;1292;61323;-82
2023/02/11 03:20:44;;;;;;;;;;;;;;;19.40;26.32;102787.11;105128;1292;61378;-82
2023/02/11 03:23:13;;;;;;;;;;;;;;;19.40;26.30;102785.16;105154;1291;61169;-82
2023/02/11 03:25:40;;;;;;;;;;;;;;;19.40;26.39;102784.09;105278;1292;61150;-82
2023/02/11 03:28:08;;;;;;;;;;;;;;;19.40;26.38;102784.08;105440;1286;61247;-82
2023/02/11 03:30:35;;;;;;;;;;;;;;;19.40;26.26;102775.88;105849;1286;72739;-82
2023/02/11 03:33:06;;;;;;;;;;;;;;;19.40;26.35;102768.02;105881;1285;74494;-82
2023/02/11 03:35:34;;;;;;;;;;;;;;;19.40;26.32;102769.46;105859;1286;61282;-82
2023/02/11 03:38:01;;;;;;;;;;;;;;;19.40;26.30;102770.15;105856;1285;61174;-82
2023/02/11 03:40:28;;;;;;;;;;;;;;;19.40;26.32;102770.52;105899;1285;73463;-82
2023/02/11 03:42:56;;;;;;;;;;;;;;;19.40;26.36;102774.09;105875;1285;75467;-82
2023/02/11 03:45:23;;;;;;;;;;;;;;;19.40;26.32;102776.42;105843;1286;61266;-82
2023/02/11 03:48:09;;;;;;;;;;;;;;;19.40;26.32;102772.49;105871;1286;61244;-81
2023/02/11 03:50:34;;;;;;;;;;;;;;;19.40;26.19;102771.42;105920;1285;72741;-81
2023/02/11 03:53:00;;;;;;;;;;;;;;;19.40;26.15;102768.93;105944;1288;61287;-81
2023/02/11 03:55:26;;;;;;;;;;;;;;;19.40;26.22;102764.80;105833;1286;61234;-81
2023/02/11 03:57:52;;;;;;;;;;;;;;;19.39;26.21;102756.79;105874;1286;61461;-81
2023/02/11 04:00:17;;;;;;;;;;;;;;;19.40;26.45;102758.75;105937;1285;61282;-81
2023/02/11 04:02:43;;;;;;;;;;;;;;;19.39;26.29;102754.84;105912;1286;61289;-82
2023/02/11 04:05:09;;;;;;;;;;;;;;;19.39;26.18;102746.80;105878;1286;75409;-81
2023/02/11 04:07:35;;;;;;;;;;;;;;;19.39;26.19;102748.77;105852;1286;62052;-81
2023/02/11 04:10:00;;;;;;;;;;;;;;;19.39;26.26;102752.52;105894;1285;61400;-82
2023/02/11 04:12:26;;;;;;;;;;;;;;;19.38;26.17;102750.21;105847;1285;61322;-82
2023/02/11 04:14:51;;;;;;;;;;;;;;;19.39;26.30;102757.52;105845;1286;61359;-82
2023/02/11 04:17:17;;;;;;;;;;;;;;;19.39;26.23;102760.19;105715;1286;61417;-82
2023/02/11 04:19:42;;;;;;;;;;;;;;;19.39;26.30;102761.09;105959;1285;61190;-82
2023/02/11 04:22:08;;;;;;;;;;;;;;;19.39;26.16;102758.59;105746;1286;61331;-82
2023/02/11 04:24:34;;;;;;;;;;;;;;;19.39;26.27;102756.09;105929;1286;59981;-82
2023/02/11 04:26:59;;;;;;;;;;;;;;;19.39;26.17;102758.95;105827;1285;61288;-82
2023/02/11 04:29:25;;;;;;;;;;;;;;;19.39;26.27;102763.23;105889;1285;60415;-82
2023/02/11 04:31:51;;;;;;;;;;;;;;;19.39;26.27;102762.88;105938;1285;61231;-82
2023/02/11 04:34:16;;;;;;;;;;;;;;;19.39;26.18;102757.17;105955;1285;60031;-82
2023/02/11 04:36:42;;;;;;;;;;;;;;;19.39;26.19;102753.95;105910;1285;61375;-82
2023/02/11 04:39:07;;;;;;;;;;;;;;;19.39;26.29;102756.80;105855;1286;61285;-82
2023/02/11 04:41:33;;;;;;;;;;;;;;;19.39;26.28;102750.54;105864;1285;61401;-82
2023/02/11 04:43:58;;;;;;;;;;;;;;;19.39;26.22;102751.09;105886;1286;61282;-82
2023/02/11 04:46:24;;;;;;;;;;;;;;;19.39;26.15;102744.67;105847;1286;61791;-82
2023/02/11 04:48:49;;;;;;;;;;;;;;;19.40;26.16;102753.04;105858;1286;61298;-82
2023/02/11 04:51:15;;;;;;;;;;;;;;;19.39;26.14;102754.84;105839;1285;61314;-82
2023/02/11 04:53:41;;;;;;;;;;;;;;;19.39;26.23;102758.23;105872;1285;61233;-82
2023/02/11 04:56:06;;;;;;;;;;;;;;;19.39;26.15;102766.10;105882;1285;61763;-82
2023/02/11 04:58:32;;;;;;;;;;;;;;;19.39;26.33;102766.27;105856;1285;60119;-82
2023/02/11 05:01:24;;;;;;;;;;;;;;;19.39;26.10;102770.74;105838;1285;61429;-82
2023/02/11 05:03:49;;;;;;;;;;;;;;;19.39;26.13;102772.70;105811;1285;74528;-82
2023/02/11 05:06:15;;;;;;;;;;;;;;;19.39;26.12;102769.66;105860;1285;59917;-82
2023/02/11 05:08:41;;;;;;;;;;;;;;;19.39;26.19;102775.37;105877;1285;59963;-82
2023/02/11 05:11:07;;;;;;;;;;;;;;;19.39;26.16;102782.17;105680;1285;61375;-82
2023/02/11 05:13:32;;;;;;;;;;;;;;;19.39;26.07;102790.89;105809;1285;61339;-82
2023/02/11 05:15:58;;;;;;;;;;;;;;;19.38;26.17;102793.98;105890;1285;61289;-82
2023/02/11 05:18:23;;;;;;;;;;;;;;;19.38;26.01;102793.42;105842;1285;61268;-82
2023/02/11 05:20:49;;;;;;;;;;;;;;;19.39;26.12;102795.72;105848;1285;61281;-82
2023/02/11 05:23:17;;;;;;;;;;;;;;;19.39;26.07;102799.11;105844;1285;72599;-81
2023/02/11 05:25:42;;;;;;;;;;;;;;;19.39;26.03;102798.96;105845;1286;61225;-81
2023/02/11 05:28:08;;;;;;;;;;;;;;;19.39;26.03;102801.63;105831;1286;61307;-81
2023/02/11 05:30:34;;;;;;;;;;;;;;;19.38;26.10;102798.96;105838;1285;61344;-81
2023/02/11 05:32:59;;;;;;;;;;;;;;;19.39;26.12;102799.50;105894;1285;61227;-81
2023/02/11 05:35:25;;;;;;;;;;;;;;;19.39;26.03;102795.58;105831;1286;73592;-81
2023/02/11 05:37:51;;;;;;;;;;;;;;;19.39;26.03;102793.77;105845;1285;61364;-82
2023/02/11 05:40:16;;;;;;;;;;;;;;;19.39;26.06;102793.76;105863;1285;61291;-81
2023/02/11 05:42:42;;;;;;;;;;;;;;;19.39;26.04;102798.42;105708;1285;59984;-81
2023/02/11 05:45:08;;;;;;;;;;;;;;;19.39;26.04;102802.34;105891;1285;61290;-81
2023/02/11 05:47:33;;;;;;;;;;;;;;;19.39;26.14;102806.10;105927;1286;61279;-81
2023/02/11 05:49:59;;;;;;;;;;;;;;;19.39;26.03;102810.55;105870;1286;61256;-81
2023/02/11 05:52:25;;;;;;;;;;;;;;;19.39;26.21;102815.35;105952;1286;61352;-81
2023/02/11 05:54:50;;;;;;;;;;;;;;;19.39;26.02;102813.94;105886;1284;61228;-80
2023/02/11 05:57:16;;;;;;;;;;;;;;;19.39;26.18;102810.73;105862;1286;59376;-81
2023/02/11 05:59:41;;;;;;;;;;;;;;;19.40;26.23;102814.45;105876;1284;59973;-81
2023/02/11 06:02:07;;;;;;;;;;;;;;;19.39;26.06;102807.33;105927;1285;75732;-81
2023/02/11 06:04:33;;;;;;;;;;;;;;;19.40;26.08;102804.09;105896;1286;61228;-81
2023/02/11 06:07:00;;;;;;;;;;;;;;;19.40;26.03;102803.73;105871;1285;61787;-81
2023/02/11 06:09:26;;;;;;;;;;;;;;;19.40;25.93;102805.88;105882;1285;61294;-81
2023/02/11 06:11:52;;;;;;;;;;;;;;;19.40;26.02;102810.16;105861;1286;61170;-80
2023/02/11 06:14:18;;;;;;;;;;;;;;;19.41;26.12;102810.86;105857;1286;61286;-81
2023/02/11 06:16:44;;;;;;;;;;;;;;;19.41;25.97;102807.98;105850;1286;61384;-81
2023/02/11 06:19:10;;;;;;;;;;;;;;;19.41;26.03;102816.38;105890;1286;61288;-81
2023/02/11 06:21:36;;;;;;;;;;;;;;;19.41;26.15;102815.11;105880;1284;61257;-81
2023/02/11 06:24:01;;;;;;;;;;;;;;;19.42;25.92;102809.39;105993;1285;61368;-81
2023/02/11 06:26:27;;;;;;;;;;;;;;;19.41;26.04;102812.62;105888;1285;61359;-81
2023/02/11 06:28:52;;;;;;;;;;;;;;;19.42;26.08;102812.60;105942;1284;61406;-81
2023/02/11 06:31:18;;;;;;;;;;;;;;;19.42;25.97;102811.89;105919;1286;61425;-81
2023/02/11 06:33:44;;;;;;;;;;;;;;;19.42;26.02;102812.23;105891;1285;61355;-81
2023/02/11 06:36:17;;;;;;;;;;;;;;;19.42;26.06;102816.52;105914;1284;61269;-80
2023/02/11 06:38:42;;;;;;;;;;;;;;;19.42;26.07;102810.80;105689;1286;61806;-80
2023/02/11 06:41:09;;;;;;;;;;;;;;;19.42;26.01;102807.95;105903;1286;61218;-80
2023/02/11 06:43:34;;;;;;;;;;;;;;;19.43;25.93;102805.25;105873;1286;61285;-80
2023/02/11 06:46:00;;;;;;;;;;;;;;;19.43;25.94;102804.89;105884;1286;61230;-80
2023/02/11 06:48:25;;;;;;;;;;;;;;;19.43;25.87;102805.23;105910;1286;61366;-80
2023/02/11 06:50:51;;;;;;;;;;;;;;;19.43;25.92;102803.98;105923;1285;61332;-80
2023/02/11 06:53:16;;;;;;;;;;;;;;;19.43;25.91;102803.08;105871;1286;61593;-80
2023/02/11 06:55:42;;;;;;;;;;;;;;;19.43;25.79;102800.40;105952;1286;61291;-80
2023/02/11 06:58:07;;;;;;;;;;;;;;;19.44;25.83;102800.39;105918;1284;61217;-80
2023/02/11 07:00:33;;;;;;;;;;;;;;;19.43;26.02;102796.47;105946;1285;59375;-80
2023/02/11 07:02:59;;;;;;;;;;;;;;;19.44;26.02;102791.99;105288;1285;858376;-81
2023/02/11 07:05:25;;;;;;;;;;;;;;;19.44;25.93;102790.92;105928;1286;61234;-81
2023/02/11 07:07:50;;;;;;;;;;;;;;;19.45;25.85;102791.45;105679;1284;72612;-81
2023/02/11 07:10:16;;;;;;;;;;;;;;;19.45;25.91;102791.08;105859;1286;61410;-81
2023/02/11 07:12:42;;;;;;;;;;;;;;;19.45;25.98;102786.61;105970;1284;61250;-81
2023/02/11 07:15:07;;;;;;;;;;;;;;;19.45;26.03;102779.30;105900;1286;61356;-81
2023/02/11 07:17:33;;;;;;;;;;;;;;;19.45;25.86;102774.12;105933;1286;61307;-81
2023/02/11 07:20:00;;;;;;;;;;;;;;;19.45;25.86;102775.02;105891;1284;73423;-81
2023/02/11 07:22:25;;;;;;;;;;;;;;;19.46;25.75;102763.92;105965;1286;74384;-81
2023/02/11 07:24:51;;;;;;;;;;;;;;;19.45;25.81;102756.96;105857;1286;61413;-80
2023/02/11 07:27:16;;;;;;;;;;;;;;;19.45;25.98;102752.67;105874;1284;61289;-80
2023/02/11 07:29:42;;;;;;;;;;;;;;;19.46;25.88;102750.33;105893;1284;61352;-80
2023/02/11 07:32:07;;;;;;;;;;;;;;;19.46;25.89;102748.35;105918;1286;61253;-81
2023/02/11 07:34:33;;;;;;;;;;;;;;;19.46;25.94;102747.27;105903;1285;75431;-81
2023/02/11 07:36:59;;;;;;;;;;;;;;;19.46;25.86;102744.23;105949;1285;60027;-81
2023/02/11 07:39:26;;;;;;;;;;;;;;;19.46;25.96;102741.92;105887;1284;61368;-82
2023/02/11 07:41:52;;;;;;;;;;;;;;;19.47;25.89;102741.73;105900;1286;61300;-81
2023/02/11 07:44:18;;;;;;;;;;;;;;;19.47;25.92;102743.34;105932;1286;59262;-81
2023/02/11 07:46:44;;;;;;;;;;;;;;;19.46;26.06;102739.06;105896;1284;61381;-81
2023/02/11 07:49:10;;;;;;;;;;;;;;;19.47;26.02;102743.70;105886;1286;61298;-81
2023/02/11 07:51:36;;;;;;;;;;;;;;;19.46;25.83;102741.20;105850;1286;61245;-81
2023/02/11 07:54:01;;;;;;;;;;;;;;;19.46;25.99;102737.45;105903;1284;61374;-81
2023/02/11 07:56:27;;;;;;;;;;;;;;;19.46;25.89;102737.10;105876;1284;74572;-82
2023/02/11 07:58:54;;;;;;;;;;;;;;;19.47;25.97;102738.68;105860;1286;61268;-81
2023/02/11 08:01:24;;;;;;;;;;;;;;;19.47;25.76;102738.86;105858;1285;61267;-81
2023/02/11 08:03:49;;;;;;;;;;;;;;;19.48;26.05;102739.74;105943;1286;72446;-82
2023/02/11 08:06:16;;;;;;;;;;;;;;;19.49;25.84;102743.63;105939;1285;61234;-81
2023/02/11 08:08:42;;;;;;;;;;;;;;;19.49;25.89;102744.34;105849;1286;61269;-81
2023/02/11 08:11:11;;;;;;;;;;;;;;;19.49;25.96;102744.70;105895;1286;61429;-81
2023/02/11 08:13:37;;;;;;;;;;;;;;;19.50;25.98;102746.08;105951;1286;72822;-81
2023/02/11 08:16:12;;;;;;;;;;;;;;;19.49;26.04;102745.76;105838;1286;61147;-81
2023/02/11 08:18:38;;;;;;;;;;;;;;;19.50;25.96;102742.70;105751;1286;61164;-81
2023/02/11 08:21:07;;;;;;;;;;;;;;;19.49;26.09;102742.90;105964;1286;61365;-81
2023/02/11 08:23:37;;;;;;;;;;;;;;;19.50;25.92;102746.08;105711;1285;73602;-81
2023/02/11 08:26:02;;;;;;;;;;;;;;;19.50;25.85;102744.30;105904;1286;75306;-81
2023/02/11 08:28:28;;;;;;;;;;;;;;;19.51;25.99;102741.23;105498;1289;61244;-81
2023/02/11 08:30:53;;;;;;;;;;;;;;;19.50;25.96;102739.81;105446;1288;61346;-81
2023/02/11 08:33:19;;;;;;;;;;;;;;;19.51;25.82;102739.99;105440;1291;61413;-81
2023/02/11 08:35:45;;;;;;;;;;;;;;;19.51;26.01;102738.21;105515;1293;61267;-81
2023/02/11 08:38:13;;;;;;;;;;;;;;;19.51;25.86;102734.45;105542;1288;61375;-81
2023/02/11 08:40:39;;;;;;;;;;;;;;;19.51;26.02;102734.98;105425;1288;60089;-81
2023/02/11 08:43:05;;;;;;;;;;;;;;;19.51;25.98;102735.69;105533;1289;61216;-81
2023/02/11 08:45:31;;;;;;;;;;;;;;;19.50;25.90;102730.17;105496;1288;61295;-81
2023/02/11 08:47:56;;;;;;;;;;;;;;;19.51;25.98;102729.80;105540;1289;75502;-81
2023/02/11 08:50:22;;;;;;;;;;;;;;;19.50;25.97;102727.86;105447;1288;61537;-81
2023/02/11 08:52:47;;;;;;;;;;;;;;;19.51;25.94;102731.23;105454;1288;61308;-81
2023/02/11 08:55:13;;;;;;;;;;;;;;;19.51;25.95;102729.80;105471;1288;61276;-81
2023/02/11 08:57:39;;;;;;;;;;;;;;;19.52;25.88;102727.64;105582;1288;61286;-81
2023/02/11 09:00:04;;;;;;;;;;;;;;;19.52;25.98;102721.54;105657;1289;75358;-81
2023/02/11 09:02:30;;;;;;;;;;;;;;;19.52;25.98;102720.46;105843;1285;61291;-81
2023/02/11 09:04:56;;;;;;;;;;;;;;;19.52;25.97;102721.35;105873;1285;61294;-81
2023/02/11 09:07:21;;;;;;;;;;;;;;;19.53;26.01;102716.88;105870;1286;61209;-81
2023/02/11 09:09:47;;;;;;;;;;;;;;;19.53;25.99;102718.65;105925;1285;61281;-81
2023/02/11 09:12:12;;;;;;;;;;;;;;;19.54;26.07;102711.13;105895;1285;61733;-81
2023/02/11 09:14:38;;;;;;;;;;;;;;;19.55;26.02;102707.54;105900;1285;61367;-81
2023/02/11 09:17:04;;;;;;;;;;;;;;;19.57;26.06;102712.80;105882;1286;61292;-81
2023/02/11 09:19:30;;;;;;;;;;;;;;;19.57;26.15;102709.03;105948;1286;61272;-81
2023/02/11 09:21:56;;;;;;;;;;;;;;;19.58;26.04;102705.24;105927;1288;61403;-81
2023/02/11 09:24:21;;;;;;;;;;;;;;;19.60;26.12;102703.77;105925;1284;61297;-81
2023/02/11 09:26:48;;;;;;;;;;;;;;;19.61;26.04;102704.63;105962;1286;61292;-81
2023/02/11 09:29:13;;;;;;;;;;;;;;;19.62;26.09;102698.33;105937;1286;61291;-81
2023/02/11 09:31:39;;;;;;;;;;;;;;;19.64;26.07;102693.27;105904;1284;60058;-81
2023/02/11 09:34:05;;;;;;;;;;;;;;;19.66;26.05;102691.80;105721;1286;61321;-82
2023/02/11 09:36:36;;;;;;;;;;;;;;;19.67;26.07;102688.70;106090;1284;61263;-81
2023/02/11 09:39:03;;;;;;;;;;;;;;;19.67;26.18;102686.20;105874;1286;61078;-81
2023/02/11 09:41:37;;;;;;;;;;;;;;;19.69;26.00;102682.20;105900;1290;73488;-81
2023/02/11 09:44:05;;;;;;;;;;;;;;;19.69;26.07;102676.13;105929;1284;75552;-81
2023/02/11 09:46:32;;;;;;;;;;;;;;;19.70;26.17;102672.71;105906;1285;61321;-81
2023/02/11 09:48:58;;;;;;;;;;;;;;;19.70;26.22;102664.81;105848;1285;61186;-81
2023/02/11 09:51:42;;;;;;;;;;;;;;;19.72;26.05;102656.56;105687;1286;61278;-81
2023/02/11 09:54:13;;;;;;;;;;;;;;;19.73;25.94;102646.85;105925;1284;74536;-81
2023/02/11 09:56:39;;;;;;;;;;;;;;;19.74;26.13;102636.98;105864;1286;61261;-81
2023/02/11 09:59:04;;;;;;;;;;;;;;;19.75;26.17;102634.80;105870;1286;61310;-81
2023/02/11 10:01:38;;;;;;;;;;;;;;;19.77;26.08;102631.71;105903;1285;61372;-81
2023/02/11 10:04:10;;;;;;;;;;;;;;;19.78;26.07;102625.25;105929;1284;75431;-81
2023/02/11 10:06:43;;;;;;;;;;;;;;;19.80;26.09;102621.61;105856;1286;61125;-81
2023/02/11 10:09:21;;;;;;;;;;;;;;;19.80;26.09;102614.64;105960;1285;61328;-81
2023/02/11 10:12:19;;;;;;;;;;;;;;;19.81;26.08;102610.51;105944;1286;73590;-81
2023/02/11 10:14:51;;;;;;;;;;;;;;;19.83;26.11;102613.14;105366;1292;74422;-82
2023/02/11 10:17:35;;;;;;;;;;;;;;;19.84;25.97;102612.55;105360;1292;61195;-80
2023/02/11 10:20:04;;;;;;;;;;;;;;;19.85;26.09;102603.23;105389;1292;61206;-82
2023/02/11 10:22:34;;;;;;;;;;;;;;;19.86;26.09;102598.52;105359;1291;73570;-82
2023/02/11 10:25:00;;;;;;;;;;;;;;;19.87;26.03;102591.89;105345;1292;74568;-81
2023/02/11 10:27:55;;;;;;;;;;;;;;;19.88;25.97;102586.14;105350;1292;60135;-81
2023/02/11 10:30:31;;;;;;;;;;;;;;;19.90;25.98;102576.23;104700;1300;61227;-82
2023/02/11 10:33:02;;;;;;;;;;;;;;;19.91;26.04;102572.98;104666;1299;73537;-81
2023/02/11 10:35:28;;;;;;;;;;;;;;;19.91;25.91;102568.32;104792;1300;75519;-80
2023/02/11 10:37:54;;;;;;;;;;;;;;;19.92;25.99;102564.19;104792;1299;61543;-82
2023/02/11 10:40:21;;;;;;;;;;;;;;;19.92;26.00;102562.20;104703;1300;61254;-81
2023/02/11 10:42:48;;;;;;;;;;;;;;;19.93;26.06;102557.18;104679;1299;61400;-82
2023/02/11 10:45:16;;;;;;;;;;;;;;;19.93;26.00;102553.61;104689;1299;75003;-81
2023/02/11 10:47:42;;;;;;;;;;;;;;;19.93;26.03;102549.84;104777;1300;61287;-81
2023/02/11 10:50:18;;;;;;;;;;;;;;;19.93;25.91;102543.04;104763;1293;61297;-81
2023/02/11 10:52:44;;;;;;;;;;;;;;;19.94;26.02;102532.65;104979;1296;73514;-81
2023/02/11 10:55:16;;;;;;;;;;;;;;;19.94;25.91;102528.00;104894;1296;61523;-81
2023/02/11 10:57:50;;;;;;;;;;;;;;;19.95;26.03;102521.40;104940;1294;60062;-81
2023/02/11 11:00:32;;;;;;;;;;;;;;;19.94;25.94;102520.86;104944;1294;61377;-81
2023/02/11 11:02:59;;;;;;;;;;;;;;;19.94;26.04;102513.38;105042;1295;72467;-82
2023/02/11 11:05:36;;;;;;;;;;;;;;;19.93;25.95;102513.21;104997;1298;61283;-82
2023/02/11 11:08:05;;;;;;;;;;;;;;;19.92;25.93;102508.41;105554;1288;61674;-82
2023/02/11 11:10:44;;;;;;;;;;;;;;;19.91;26.08;102503.27;105626;1288;61312;-81
2023/02/11 11:13:29;;;;;;;;;;;;;;;19.91;26.01;102501.67;105608;1288;72555;-82
2023/02/11 11:16:13;;;;;;;;;;;;;;;19.90;26.10;102493.66;105629;1289;74288;-82
2023/02/11 11:18:42;;;;;;;;;;;;;;;19.89;26.16;102488.16;105656;1288;61164;-82
2023/02/11 11:21:14;;;;;;;;;;;;;;;19.88;26.19;102485.89;105629;1288;61191;-82
2023/02/11 11:23:39;;;;;;;;;;;;;;;19.88;26.05;102484.29;105643;1289;72545;-82
2023/02/11 11:26:09;;;;;;;;;;;;;;;19.88;26.09;102482.16;105604;1288;61436;-81
2023/02/11 11:28:50;;;;;;;;;;;;;;;19.88;26.05;102473.59;105634;1288;61273;-81
2023/02/11 11:31:27;;;;;;;;;;;;;;;19.86;26.17;102465.95;105616;1288;61165;-81
2023/02/11 11:33:54;;;;;;;;;;;;;;;19.86;25.96;102463.09;105601;1288;72812;-81
2023/02/11 11:36:20;;;;;;;;;;;;;;;19.86;25.99;102456.30;105633;1288;75272;-81
2023/02/11 11:38:56;;;;;;;;;;;;;;;19.85;25.93;102452.41;105637;1288;61352;-81
2023/02/11 11:41:25;;;;;;;;;;;;;;;19.85;25.98;102447.77;105642;1288;62910;-82
2023/02/11 11:44:27;;;;;;;;;;;;;;;19.85;26.17;102446.52;105638;1288;72488;-81
2023/02/11 11:47:12;;;;;;;;;;;;;;;19.85;25.87;102439.40;105375;1291;74152;-82
2023/02/11 11:49:38;;;;;;;;;;;;;;;19.84;26.07;102431.36;105389;1291;61323;-81
2023/02/11 11:52:22;;;;;;;;;;;;;;;19.85;26.14;102421.88;105495;1291;61524;-82
2023/02/11 11:55:11;;;;;;;;;;;;;;;19.84;26.02;102411.19;105343;1292;73071;-82
2023/02/11 11:57:37;;;;;;;;;;;;;;;19.84;26.13;102404.39;105288;1292;75456;-82
2023/02/11 12:00:03;;;;;;;;;;;;;;;19.84;26.01;102401.34;105348;1292;61251;-82
2023/02/11 12:02:36;;;;;;;;;;;;;;;19.85;26.07;102399.02;105259;1292;61389;-82
2023/02/11 12:05:19;;;;;;;;;;;;;;;19.85;26.21;102396.70;105186;1292;73436;-82
2023/02/11 12:07:44;;;;;;;;;;;;;;;19.85;26.23;102392.39;105365;1292;75287;-82
2023/02/11 12:10:21;;;;;;;;;;;;;;;19.85;26.11;102380.60;105275;1291;61398;-83
2023/02/11 12:12:47;;;;;;;;;;;;;;;19.86;26.02;102381.64;105357;1291;61428;-82
2023/02/11 12:15:28;;;;;;;;;;;;;;;19.86;26.07;102373.23;105375;1292;61259;-82
2023/02/11 12:18:09;;;;;;;;;;;;;;;19.86;26.22;102366.79;105238;1291;74359;-82
2023/02/11 12:20:51;;;;;;;;;;;;;;;19.87;26.15;102364.09;105417;1288;61353;-82
2023/02/11 12:23:29;;;;;;;;;;;;;;;19.87;26.04;102363.89;105650;1288;61160;-82
2023/02/11 12:25:59;;;;;;;;;;;;;;;19.87;26.15;102361.02;105614;1288;72546;-81
2023/02/11 12:28:50;;;;;;;;;;;;;;;19.88;26.22;102354.73;105631;1288;75364;-81
2023/02/11 12:31:35;;;;;;;;;;;;;;;19.90;26.24;102357.52;105634;1288;61154;-81
2023/02/11 12:34:07;;;;;;;;;;;;;;;19.91;26.19;102356.94;105647;1288;61173;-81
2023/02/11 12:36:54;;;;;;;;;;;;;;;19.92;26.17;102349.23;105616;1288;73589;-81